VTK609 UHHH-UHMM
Flight info
| Callsign | VTK609 |
|---|---|
| Flight time | N/A |
| Altitude | 37000 |
| Route | TOMSU2U TOMSU N222 NA L160 BANOT BANOT5J |
| Aircraft | B738/M-SDE2E3FGHIRWXY/LB1 |
Departure
| Time | 2026-04-23 08:17 |
|---|---|
| Airport | Khabarovsk Novy Airport (UHHH) |
Arrival
| Time | N/A |
|---|---|
| Airport | Sokol Airport (UHMM) |
| Time | Latitude | Longitude | Altitude | Speed | Heading |
|---|---|---|---|---|---|
| 2026-04-23 07:58 | 48.52527 | 135.17212 | 245 ft | 0 kts | 312° |
| 2026-04-23 08:09 | 48.52525 | 135.17216 | 245 ft | 2 kts | 312° |
| 2026-04-23 08:10 | 48.52514 | 135.17233 | 245 ft | 2 kts | 317° |
| 2026-04-23 08:10 | 48.52501 | 135.17249 | 245 ft | 2 kts | 323° |
| 2026-04-23 08:10 | 48.52472 | 135.17273 | 245 ft | 2 kts | 347° |
| 2026-04-23 08:11 | 48.52456 | 135.17275 | 245 ft | 2 kts | 9° |
| 2026-04-23 08:11 | 48.52441 | 135.17267 | 245 ft | 2 kts | 32° |
| 2026-04-23 08:11 | 48.52433 | 135.17258 | 232 ft | 0 kts | 41° |
| 2026-04-23 08:11 | 48.52432 | 135.17258 | 231 ft | 0 kts | 41° |
| 2026-04-23 08:12 | 48.52441 | 135.17269 | 245 ft | 4 kts | 41° |
| 2026-04-23 08:13 | 48.52476 | 135.17316 | 245 ft | 9 kts | 43° |
| 2026-04-23 08:13 | 48.52510 | 135.17388 | 252 ft | 9 kts | 86° |
| 2026-04-23 08:13 | 48.52479 | 135.17468 | 244 ft | 9 kts | 132° |
| 2026-04-23 08:13 | 48.52439 | 135.17536 | 245 ft | 9 kts | 131° |
| 2026-04-23 08:14 | 48.52399 | 135.17603 | 245 ft | 8 kts | 133° |
| 2026-04-23 08:14 | 48.52360 | 135.17667 | 245 ft | 8 kts | 132° |
| 2026-04-23 08:14 | 48.52322 | 135.17731 | 245 ft | 9 kts | 132° |
| 2026-04-23 08:14 | 48.52278 | 135.17805 | 246 ft | 10 kts | 131° |
| 2026-04-23 08:15 | 48.52229 | 135.17886 | 245 ft | 12 kts | 132° |
| 2026-04-23 08:15 | 48.52174 | 135.17978 | 243 ft | 10 kts | 131° |
| 2026-04-23 08:15 | 48.52130 | 135.18052 | 241 ft | 9 kts | 131° |
| 2026-04-23 08:15 | 48.52111 | 135.18131 | 242 ft | 8 kts | 79° |
| 2026-04-23 08:16 | 48.52136 | 135.18184 | 242 ft | 0 kts | 42° |
| 2026-04-23 08:16 | 48.52153 | 135.18208 | 241 ft | 17 kts | 42° |
| 2026-04-23 08:16 | 48.52426 | 135.18580 | 245 ft | 87 kts | 42° |
| 2026-04-23 08:17 | 48.53025 | 135.19393 | 249 ft | 144 kts | 40° |
| 2026-04-23 08:17 | 48.53791 | 135.20431 | 820 ft | 149 kts | 40° |
| 2026-04-23 08:17 | 48.54530 | 135.21456 | 1734 ft | 143 kts | 40° |
| 2026-04-23 08:17 | 48.55292 | 135.22507 | 2337 ft | 157 kts | 41° |
| 2026-04-23 08:18 | 48.56134 | 135.23657 | 3025 ft | 166 kts | 40° |
| 2026-04-23 08:18 | 48.57022 | 135.24855 | 3700 ft | 180 kts | 40° |
| 2026-04-23 08:18 | 48.58001 | 135.26169 | 4154 ft | 196 kts | 40° |
| 2026-04-23 08:18 | 48.59087 | 135.27635 | 4419 ft | 224 kts | 42° |
| 2026-04-23 08:19 | 48.60296 | 135.29289 | 4947 ft | 240 kts | 42° |
| 2026-04-23 08:19 | 48.61548 | 135.31010 | 5757 ft | 245 kts | 41° |
| 2026-04-23 08:19 | 48.62819 | 135.32753 | 6590 ft | 250 kts | 41° |
| 2026-04-23 08:19 | 48.64121 | 135.34542 | 7369 ft | 253 kts | 41° |
| 2026-04-23 08:20 | 48.65435 | 135.36349 | 8221 ft | 256 kts | 41° |
| 2026-04-23 08:20 | 48.66744 | 135.38148 | 9038 ft | 259 kts | 41° |
| 2026-04-23 08:20 | 48.68087 | 135.39998 | 9892 ft | 260 kts | 41° |
| 2026-04-23 08:20 | 48.69446 | 135.41871 | 10550 ft | 270 kts | 42° |
| 2026-04-23 08:21 | 48.70902 | 135.43879 | 10754 ft | 294 kts | 42° |
| 2026-04-23 08:21 | 48.72468 | 135.46039 | 11060 ft | 312 kts | 42° |
| 2026-04-23 08:21 | 48.74107 | 135.48304 | 11581 ft | 324 kts | 42° |
| 2026-04-23 08:21 | 48.75802 | 135.50647 | 12129 ft | 334 kts | 43° |
| 2026-04-23 08:22 | 48.77479 | 135.53094 | 12987 ft | 334 kts | 46° |
| 2026-04-23 08:22 | 48.79092 | 135.55613 | 13944 ft | 333 kts | 47° |
| 2026-04-23 08:22 | 48.80687 | 135.58142 | 14649 ft | 337 kts | 47° |
| 2026-04-23 08:22 | 48.82309 | 135.60715 | 15505 ft | 339 kts | 47° |
| 2026-04-23 08:23 | 48.83950 | 135.63311 | 16252 ft | 342 kts | 47° |
| 2026-04-23 08:23 | 48.85626 | 135.65957 | 16871 ft | 350 kts | 47° |
| 2026-04-23 08:23 | 48.87308 | 135.68603 | 17808 ft | 349 kts | 47° |
| 2026-04-23 08:23 | 48.89009 | 135.71280 | 18411 ft | 357 kts | 47° |
| 2026-04-23 08:24 | 48.90753 | 135.74025 | 18921 ft | 363 kts | 47° |
| 2026-04-23 08:24 | 48.92510 | 135.76791 | 19640 ft | 364 kts | 48° |
| 2026-04-23 08:24 | 48.94246 | 135.79526 | 20369 ft | 364 kts | 48° |
| 2026-04-23 08:24 | 48.96007 | 135.82305 | 21050 ft | 366 kts | 49° |
| 2026-04-23 08:25 | 48.97775 | 135.85098 | 21813 ft | 365 kts | 50° |
| 2026-04-23 08:25 | 48.99559 | 135.87867 | 22477 ft | 367 kts | 49° |
| 2026-04-23 08:25 | 49.01372 | 135.90624 | 23088 ft | 370 kts | 49° |
| 2026-04-23 08:25 | 49.03203 | 135.93393 | 23685 ft | 372 kts | 49° |
| 2026-04-23 08:26 | 49.05048 | 135.96185 | 24178 ft | 374 kts | 49° |
| 2026-04-23 08:26 | 49.06904 | 135.99001 | 24631 ft | 377 kts | 49° |
| 2026-04-23 08:26 | 49.08767 | 136.01835 | 25088 ft | 380 kts | 49° |
| 2026-04-23 08:26 | 49.10620 | 136.04660 | 25516 ft | 383 kts | 49° |
| 2026-04-23 08:27 | 49.12510 | 136.07547 | 25927 ft | 386 kts | 49° |
| 2026-04-23 08:27 | 49.14417 | 136.10465 | 26332 ft | 389 kts | 49° |
| 2026-04-23 08:27 | 49.16336 | 136.13405 | 26759 ft | 391 kts | 49° |
| 2026-04-23 08:27 | 49.18266 | 136.16365 | 27183 ft | 393 kts | 49° |
| 2026-04-23 08:28 | 49.20183 | 136.19309 | 27588 ft | 396 kts | 49° |
| 2026-04-23 08:28 | 49.22131 | 136.22303 | 27991 ft | 398 kts | 49° |
| 2026-04-23 08:28 | 49.24101 | 136.25337 | 28380 ft | 401 kts | 49° |
| 2026-04-23 08:28 | 49.26074 | 136.28377 | 28756 ft | 403 kts | 49° |
| 2026-04-23 08:29 | 49.28054 | 136.31433 | 29122 ft | 405 kts | 49° |
| 2026-04-23 08:29 | 49.30045 | 136.34509 | 29483 ft | 407 kts | 49° |
| 2026-04-23 08:29 | 49.32023 | 136.37568 | 29822 ft | 410 kts | 49° |
| 2026-04-23 08:29 | 49.34042 | 136.40695 | 30151 ft | 412 kts | 49° |
| 2026-04-23 08:30 | 49.36064 | 136.43830 | 30410 ft | 414 kts | 49° |
| 2026-04-23 08:30 | 49.38098 | 136.46988 | 30688 ft | 416 kts | 49° |
| 2026-04-23 08:30 | 49.40137 | 136.50156 | 30985 ft | 417 kts | 49° |
| 2026-04-23 08:30 | 49.42180 | 136.53336 | 31266 ft | 419 kts | 49° |
| 2026-04-23 08:31 | 49.44278 | 136.56496 | 31532 ft | 423 kts | 44° |
| 2026-04-23 08:31 | 49.46599 | 136.59207 | 31810 ft | 428 kts | 37° |
| 2026-04-23 08:31 | 49.49097 | 136.61732 | 32123 ft | 429 kts | 37° |
| 2026-04-23 08:31 | 49.51613 | 136.64250 | 32358 ft | 431 kts | 36° |
| 2026-04-23 08:32 | 49.54142 | 136.66789 | 32607 ft | 433 kts | 36° |
| 2026-04-23 08:32 | 49.56631 | 136.69304 | 32922 ft | 433 kts | 36° |
| 2026-04-23 08:32 | 49.59160 | 136.71874 | 33275 ft | 432 kts | 36° |
| 2026-04-23 08:32 | 49.61636 | 136.74403 | 33723 ft | 429 kts | 36° |
| 2026-04-23 08:33 | 49.64141 | 136.76973 | 33996 ft | 431 kts | 36° |
| 2026-04-23 08:33 | 49.66653 | 136.79557 | 34176 ft | 433 kts | 36° |
| 2026-04-23 08:33 | 49.69135 | 136.82113 | 34414 ft | 434 kts | 36° |
| 2026-04-23 08:33 | 49.71658 | 136.84716 | 34666 ft | 434 kts | 36° |
| 2026-04-23 08:34 | 49.74172 | 136.87310 | 34915 ft | 435 kts | 36° |
| 2026-04-23 08:34 | 49.76694 | 136.89917 | 35112 ft | 437 kts | 36° |
| 2026-04-23 08:34 | 49.79228 | 136.92539 | 35320 ft | 438 kts | 36° |
| 2026-04-23 08:34 | 49.81770 | 136.95173 | 35561 ft | 438 kts | 36° |
| 2026-04-23 08:35 | 49.84304 | 136.97800 | 35792 ft | 439 kts | 35° |
| 2026-04-23 08:35 | 49.86815 | 137.00408 | 36028 ft | 439 kts | 36° |
| 2026-04-23 08:35 | 49.89350 | 137.03044 | 36261 ft | 439 kts | 35° |
| 2026-04-23 08:35 | 49.91905 | 137.05705 | 36489 ft | 439 kts | 35° |
| 2026-04-23 08:36 | 49.94442 | 137.08350 | 36730 ft | 440 kts | 35° |
| 2026-04-23 08:36 | 49.96989 | 137.11010 | 36919 ft | 441 kts | 35° |
| 2026-04-23 08:36 | 49.99534 | 137.13670 | 37155 ft | 441 kts | 35° |
| 2026-04-23 08:36 | 50.02075 | 137.16331 | 37418 ft | 440 kts | 35° |
| 2026-04-23 08:37 | 50.04602 | 137.18981 | 37521 ft | 443 kts | 35° |
| 2026-04-23 08:37 | 50.07158 | 137.21664 | 37815 ft | 442 kts | 34° |
| 2026-04-23 08:37 | 50.12284 | 137.27074 | 38103 ft | 445 kts | 36° |
| 2026-04-23 08:38 | 50.13977 | 137.28881 | 38327 ft | 442 kts | 35° |
| 2026-04-23 08:38 | 50.17356 | 137.32491 | 38576 ft | 444 kts | 35° |
| 2026-04-23 08:38 | 50.21623 | 137.37059 | 38677 ft | 449 kts | 35° |
| 2026-04-23 08:39 | 50.26807 | 137.42618 | 38913 ft | 452 kts | 35° |
| 2026-04-23 08:39 | 50.29400 | 137.45403 | 39067 ft | 452 kts | 35° |
| 2026-04-23 08:39 | 50.31975 | 137.48172 | 39059 ft | 454 kts | 35° |
| 2026-04-23 08:40 | 50.37184 | 137.53783 | 39066 ft | 452 kts | 35° |
| 2026-04-23 08:40 | 50.42256 | 137.59530 | 39069 ft | 447 kts | 38° |
| 2026-04-23 08:41 | 50.47122 | 137.65492 | 39087 ft | 444 kts | 39° |
| 2026-04-23 08:41 | 50.51988 | 137.71462 | 39080 ft | 443 kts | 38° |
| 2026-04-23 08:42 | 50.56873 | 137.77410 | 39083 ft | 449 kts | 38° |
| 2026-04-23 08:42 | 50.61860 | 137.83476 | 39097 ft | 455 kts | 38° |
| 2026-04-23 08:43 | 50.66889 | 137.89598 | 39093 ft | 459 kts | 38° |
| 2026-04-23 08:43 | 50.71928 | 137.95757 | 39085 ft | 455 kts | 38° |
| 2026-04-23 08:44 | 50.76903 | 138.01855 | 39091 ft | 449 kts | 38° |
| 2026-04-23 08:44 | 50.81798 | 138.07873 | 39089 ft | 445 kts | 38° |
| 2026-04-23 08:45 | 50.86667 | 138.13877 | 39104 ft | 445 kts | 39° |
| 2026-04-23 08:45 | 50.91590 | 138.19952 | 39110 ft | 451 kts | 38° |
| 2026-04-23 08:46 | 50.96785 | 138.25555 | 39119 ft | 455 kts | 34° |
| 2026-04-23 08:46 | 51.02122 | 138.30953 | 39104 ft | 449 kts | 34° |
| 2026-04-23 08:47 | 51.07319 | 138.36239 | 39109 ft | 441 kts | 34° |
| 2026-04-23 08:47 | 51.12473 | 138.41573 | 39124 ft | 446 kts | 34° |
| 2026-04-23 08:48 | 51.17725 | 138.47038 | 39126 ft | 452 kts | 34° |
| 2026-04-23 08:48 | 51.22970 | 138.52519 | 39120 ft | 448 kts | 34° |
| 2026-04-23 08:49 | 51.28130 | 138.57910 | 39109 ft | 441 kts | 34° |
| 2026-04-23 08:49 | 51.33245 | 138.63269 | 39123 ft | 442 kts | 34° |
| 2026-04-23 08:50 | 51.38437 | 138.68742 | 39143 ft | 448 kts | 34° |
| 2026-04-23 08:50 | 51.43654 | 138.74259 | 39134 ft | 448 kts | 34° |
| 2026-04-23 08:51 | 51.48806 | 138.79711 | 39121 ft | 441 kts | 34° |
| 2026-04-23 08:51 | 51.53939 | 138.85158 | 39129 ft | 441 kts | 34° |
| 2026-04-23 08:52 | 51.59048 | 138.90593 | 39141 ft | 441 kts | 34° |
| 2026-04-23 08:52 | 51.64174 | 138.96062 | 39135 ft | 443 kts | 34° |
| 2026-04-23 08:53 | 51.69286 | 139.01531 | 39143 ft | 444 kts | 34° |
| 2026-04-23 08:53 | 51.74431 | 139.07051 | 39146 ft | 446 kts | 34° |
| 2026-04-23 08:54 | 51.79622 | 139.12638 | 39134 ft | 447 kts | 34° |
| 2026-04-23 08:54 | 51.84815 | 139.18243 | 39140 ft | 448 kts | 34° |
| 2026-04-23 08:55 | 51.89986 | 139.23838 | 39149 ft | 449 kts | 34° |
| 2026-04-23 08:55 | 51.95196 | 139.29499 | 39142 ft | 449 kts | 34° |
| 2026-04-23 08:56 | 52.00371 | 139.35124 | 39142 ft | 449 kts | 34° |
| 2026-04-23 08:56 | 52.05567 | 139.40791 | 39140 ft | 448 kts | 34° |
| 2026-04-23 08:57 | 52.10712 | 139.46421 | 39135 ft | 447 kts | 34° |
| 2026-04-23 08:57 | 52.15829 | 139.52038 | 39146 ft | 445 kts | 34° |
| 2026-04-23 08:58 | 52.20966 | 139.57692 | 39151 ft | 444 kts | 34° |
| 2026-04-23 08:58 | 52.26084 | 139.63342 | 39154 ft | 443 kts | 34° |
| 2026-04-23 08:59 | 52.31183 | 139.68986 | 39150 ft | 443 kts | 34° |
| 2026-04-23 08:59 | 52.36288 | 139.74653 | 39165 ft | 443 kts | 35° |
| 2026-04-23 09:00 | 52.41394 | 139.80325 | 39154 ft | 443 kts | 35° |
| 2026-04-23 09:00 | 52.46480 | 139.86013 | 39167 ft | 443 kts | 35° |
| 2026-04-23 09:01 | 52.51581 | 139.91730 | 39159 ft | 444 kts | 35° |
| 2026-04-23 09:01 | 52.56678 | 139.97449 | 39156 ft | 445 kts | 35° |
| 2026-04-23 09:02 | 52.61803 | 140.03214 | 39162 ft | 446 kts | 35° |
| 2026-04-23 09:02 | 52.66848 | 140.09098 | 39166 ft | 446 kts | 37° |
| 2026-04-23 09:03 | 52.71853 | 140.15237 | 39170 ft | 447 kts | 37° |
| 2026-04-23 09:03 | 52.76836 | 140.21373 | 39181 ft | 448 kts | 37° |
| 2026-04-23 09:04 | 52.81835 | 140.27507 | 39177 ft | 448 kts | 37° |
| 2026-04-23 09:04 | 52.86834 | 140.33641 | 39172 ft | 448 kts | 37° |
| 2026-04-23 09:05 | 52.91845 | 140.39807 | 39185 ft | 448 kts | 37° |
| 2026-04-23 09:05 | 52.96827 | 140.45957 | 39178 ft | 447 kts | 37° |
| 2026-04-23 09:06 | 53.01823 | 140.52143 | 39186 ft | 446 kts | 37° |
| 2026-04-23 09:06 | 53.06768 | 140.58285 | 39181 ft | 444 kts | 37° |
| 2026-04-23 09:07 | 53.11706 | 140.64433 | 39181 ft | 443 kts | 37° |
| 2026-04-23 09:07 | 53.16660 | 140.70478 | 39185 ft | 442 kts | 34° |
| 2026-04-23 09:08 | 53.21892 | 140.75893 | 39183 ft | 441 kts | 31° |
| 2026-04-23 09:08 | 53.27130 | 140.81123 | 39199 ft | 440 kts | 32° |
| 2026-04-23 09:09 | 53.32379 | 140.86465 | 39194 ft | 440 kts | 32° |
| 2026-04-23 09:09 | 53.37584 | 140.91841 | 39198 ft | 440 kts | 32° |
| 2026-04-23 09:10 | 53.45388 | 140.99954 | 39196 ft | 441 kts | 32° |
| 2026-04-23 09:11 | 53.50610 | 141.05399 | 39198 ft | 442 kts | 32° |
| 2026-04-23 09:11 | 53.55825 | 141.10853 | 39200 ft | 442 kts | 32° |
| 2026-04-23 09:12 | 53.61052 | 141.16335 | 39202 ft | 443 kts | 32° |
| 2026-04-23 09:12 | 53.66271 | 141.21823 | 39196 ft | 444 kts | 32° |
| 2026-04-23 09:13 | 53.71505 | 141.27346 | 39202 ft | 444 kts | 32° |
| 2026-04-23 09:13 | 53.76759 | 141.32911 | 39199 ft | 445 kts | 32° |
| 2026-04-23 09:14 | 53.82002 | 141.38482 | 39199 ft | 445 kts | 32° |
| 2026-04-23 09:14 | 53.87226 | 141.44050 | 39199 ft | 445 kts | 33° |
| 2026-04-23 09:15 | 53.92483 | 141.49669 | 39201 ft | 445 kts | 33° |
| 2026-04-23 09:15 | 53.97730 | 141.55295 | 39201 ft | 445 kts | 32° |
| 2026-04-23 09:16 | 54.02945 | 141.60902 | 39203 ft | 445 kts | 32° |
| 2026-04-23 09:16 | 54.08185 | 141.66554 | 39200 ft | 445 kts | 32° |
| 2026-04-23 09:17 | 54.13398 | 141.72193 | 39199 ft | 444 kts | 33° |
| 2026-04-23 09:17 | 54.18599 | 141.77837 | 39201 ft | 444 kts | 32° |
| 2026-04-23 09:18 | 54.23799 | 141.83497 | 39197 ft | 443 kts | 32° |
| 2026-04-23 09:18 | 54.28983 | 141.89156 | 39199 ft | 443 kts | 33° |
| 2026-04-23 09:19 | 54.34172 | 141.94838 | 39207 ft | 443 kts | 33° |
| 2026-04-23 09:19 | 54.39343 | 142.00518 | 39207 ft | 442 kts | 33° |